Albion, Michigan
Current Conditions -  °F | °C
As of 7:13 AM on Sunday 21 Dec 2014 (Local Time) from KRMY Reporting Station
Haze Haze  
Wind Chill: -2°   Ceiling: 5500
Heat Index: -2°   Visibility: 5mi
Dew Point: -3°   Wind: 0mph
Humidity: 93%   Direction: NA
Pressure: 30.27"   Gusts: NA
Location:  42.25°N, 84.75°W
Report Text: KRMY 211213Z AUTO 00000KT 5SM BR SCT027 OVC055 M02/M03 A3027 RMK AO2 T10201030
Loading
Personal Weather Stations






























Interactive Weather Map New forecast layout! Learn more

10-Day Weather Forecast

Advertisements
Track Severe Weather on mobile